sensor_id;sensor_type;location;lat;lon;timestamp;P1;durP1;ratioP1;P2;durP2;ratioP2
57899;SDS011;60605;53.716;19.940;2023-07-29T00:13:05;10.00;;;9.10;;
57899;SDS011;60605;53.716;19.940;2023-07-29T00:18:09;10.50;;;9.60;;
57899;SDS011;60605;53.716;19.940;2023-07-29T00:23:12;10.10;;;9.30;;
57899;SDS011;60605;53.716;19.940;2023-07-29T00:28:16;10.20;;;9.30;;
57899;SDS011;60605;53.716;19.940;2023-07-29T00:33:23;10.70;;;9.60;;
57899;SDS011;60605;53.716;19.940;2023-07-29T00:38:26;10.70;;;9.70;;
57899;SDS011;60605;53.716;19.940;2023-07-29T00:43:29;10.90;;;9.80;;
57899;SDS011;60605;53.716;19.940;2023-07-29T00:48:33;9.80;;;8.90;;
57899;SDS011;60605;53.716;19.940;2023-07-29T00:53:36;10.10;;;9.10;;
57899;SDS011;60605;53.716;19.940;2023-07-29T00:58:40;11.60;;;10.40;;
57899;SDS011;60605;53.716;19.940;2023-07-29T01:03:43;11.30;;;10.30;;
57899;SDS011;60605;53.716;19.940;2023-07-29T01:09:26;13.20;;;10.70;;
57899;SDS011;60605;53.716;19.940;2023-07-29T01:20:00;12.70;;;11.60;;
57899;SDS011;60605;53.716;19.940;2023-07-29T01:25:10;13.90;;;12.50;;
57899;SDS011;60605;53.716;19.940;2023-07-29T01:30:14;13.70;;;12.30;;
57899;SDS011;60605;53.716;19.940;2023-07-29T01:40:42;15.90;;;13.80;;
57899;SDS011;60605;53.716;19.940;2023-07-29T01:45:46;15.20;;;13.50;;
57899;SDS011;60605;53.716;19.940;2023-07-29T01:50:50;16.40;;;14.70;;
57899;SDS011;60605;53.716;19.940;2023-07-29T01:55:53;84.10;;;19.00;;
57899;SDS011;60605;53.716;19.940;2023-07-29T02:00:57;19.00;;;15.90;;
57899;SDS011;60605;53.716;19.940;2023-07-29T02:06:00;16.90;;;15.00;;
57899;SDS011;60605;53.716;19.940;2023-07-29T02:11:04;16.70;;;15.00;;
57899;SDS011;60605;53.716;19.940;2023-07-29T02:16:07;26.60;;;16.80;;
57899;SDS011;60605;53.716;19.940;2023-07-29T02:21:10;22.80;;;15.60;;
57899;SDS011;60605;53.716;19.940;2023-07-29T02:26:14;27.40;;;14.90;;
57899;SDS011;60605;53.716;19.940;2023-07-29T02:36:23;39.40;;;14.60;;
57899;SDS011;60605;53.716;19.940;2023-07-29T02:41:27;29.60;;;13.70;;
57899;SDS011;60605;53.716;19.940;2023-07-29T02:46:30;55.30;;;13.70;;
57899;SDS011;60605;53.716;19.940;2023-07-29T02:51:34;36.10;;;12.70;;
57899;SDS011;60605;53.716;19.940;2023-07-29T02:56:37;143.60;;;15.10;;
57899;SDS011;60605;53.716;19.940;2023-07-29T03:01:40;40.00;;;15.50;;
57899;SDS011;60605;53.716;19.940;2023-07-29T03:06:44;110.40;;;16.20;;
57899;SDS011;60605;53.716;19.940;2023-07-29T03:11:47;97.90;;;15.50;;
57899;SDS011;60605;53.716;19.940;2023-07-29T03:21:54;19.40;;;13.50;;
57899;SDS011;60605;53.716;19.940;2023-07-29T03:26:57;24.70;;;16.10;;
57899;SDS011;60605;53.716;19.940;2023-07-29T03:32:00;24.40;;;15.60;;
57899;SDS011;60605;53.716;19.940;2023-07-29T03:37:04;92.10;;;19.00;;
57899;SDS011;60605;53.716;19.940;2023-07-29T03:42:07;96.70;;;19.40;;
57899;SDS011;60605;53.716;19.940;2023-07-29T03:47:11;170.10;;;20.20;;
57899;SDS011;60605;53.716;19.940;2023-07-29T03:52:14;163.60;;;19.70;;
57899;SDS011;60605;53.716;19.940;2023-07-29T03:57:17;276.40;;;23.50;;
57899;SDS011;60605;53.716;19.940;2023-07-29T04:02:21;80.10;;;18.80;;
57899;SDS011;60605;53.716;19.940;2023-07-29T04:07:24;92.30;;;19.80;;
57899;SDS011;60605;53.716;19.940;2023-07-29T04:12:28;130.60;;;18.60;;
57899;SDS011;60605;53.716;19.940;2023-07-29T04:17:31;94.70;;;18.50;;
57899;SDS011;60605;53.716;19.940;2023-07-29T04:22:35;71.60;;;17.80;;
57899;SDS011;60605;53.716;19.940;2023-07-29T04:27:38;79.60;;;17.70;;
57899;SDS011;60605;53.716;19.940;2023-07-29T04:32:41;36.50;;;14.50;;
57899;SDS011;60605;53.716;19.940;2023-07-29T04:37:45;15.50;;;12.80;;
57899;SDS011;60605;53.716;19.940;2023-07-29T04:42:50;15.20;;;12.30;;
57899;SDS011;60605;53.716;19.940;2023-07-29T04:47:55;11.50;;;10.20;;
57899;SDS011;60605;53.716;19.940;2023-07-29T04:52:58;11.00;;;9.70;;
57899;SDS011;60605;53.716;19.940;2023-07-29T04:58:02;10.40;;;9.40;;
57899;SDS011;60605;53.716;19.940;2023-07-29T05:03:05;18.20;;;10.20;;
57899;SDS011;60605;53.716;19.940;2023-07-29T05:08:09;11.90;;;10.20;;
57899;SDS011;60605;53.716;19.940;2023-07-29T05:13:12;12.60;;;10.60;;
57899;SDS011;60605;53.716;19.940;2023-07-29T05:18:16;11.60;;;9.90;;
57899;SDS011;60605;53.716;19.940;2023-07-29T05:23:20;11.80;;;10.50;;
57899;SDS011;60605;53.716;19.940;2023-07-29T05:28:23;13.10;;;9.60;;
57899;SDS011;60605;53.716;19.940;2023-07-29T05:33:26;12.30;;;9.50;;
57899;SDS011;60605;53.716;19.940;2023-07-29T05:38:30;10.60;;;9.50;;
57899;SDS011;60605;53.716;19.940;2023-07-29T05:43:33;9.60;;;8.40;;
57899;SDS011;60605;53.716;19.940;2023-07-29T05:48:37;8.20;;;7.10;;
57899;SDS011;60605;53.716;19.940;2023-07-29T05:53:40;9.10;;;6.30;;
57899;SDS011;60605;53.716;19.940;2023-07-29T05:58:43;6.90;;;5.40;;
57899;SDS011;60605;53.716;19.940;2023-07-29T06:03:47;7.30;;;4.90;;
57899;SDS011;60605;53.716;19.940;2023-07-29T06:08:50;7.20;;;5.00;;
57899;SDS011;60605;53.716;19.940;2023-07-29T06:13:55;5.30;;;4.80;;
57899;SDS011;60605;53.716;19.940;2023-07-29T06:18:58;5.50;;;4.90;;
57899;SDS011;60605;53.716;19.940;2023-07-29T06:24:02;4.80;;;4.30;;
57899;SDS011;60605;53.716;19.940;2023-07-29T06:29:06;6.50;;;4.30;;
57899;SDS011;60605;53.716;19.940;2023-07-29T06:34:09;6.10;;;4.80;;
57899;SDS011;60605;53.716;19.940;2023-07-29T06:39:12;5.30;;;4.80;;
57899;SDS011;60605;53.716;19.940;2023-07-29T06:44:16;5.90;;;4.70;;
57899;SDS011;60605;53.716;19.940;2023-07-29T06:49:19;4.70;;;4.30;;
57899;SDS011;60605;53.716;19.940;2023-07-29T06:54:26;5.50;;;4.60;;
57899;SDS011;60605;53.716;19.940;2023-07-29T06:59:29;4.70;;;4.10;;
57899;SDS011;60605;53.716;19.940;2023-07-29T07:04:33;7.10;;;4.20;;
57899;SDS011;60605;53.716;19.940;2023-07-29T07:09:36;4.60;;;3.70;;
57899;SDS011;60605;53.716;19.940;2023-07-29T07:14:39;3.60;;;3.30;;
57899;SDS011;60605;53.716;19.940;2023-07-29T07:19:42;2.80;;;2.60;;
57899;SDS011;60605;53.716;19.940;2023-07-29T07:24:46;2.60;;;2.40;;
57899;SDS011;60605;53.716;19.940;2023-07-29T07:29:49;2.90;;;2.40;;
57899;SDS011;60605;53.716;19.940;2023-07-29T07:34:53;2.30;;;2.10;;
57899;SDS011;60605;53.716;19.940;2023-07-29T07:39:56;2.70;;;2.50;;
57899;SDS011;60605;53.716;19.940;2023-07-29T07:44:59;3.00;;;2.70;;
57899;SDS011;60605;53.716;19.940;2023-07-29T07:50:03;3.10;;;2.40;;
57899;SDS011;60605;53.716;19.940;2023-07-29T07:55:07;2.90;;;2.70;;
57899;SDS011;60605;53.716;19.940;2023-07-29T08:00:11;2.80;;;2.50;;
57899;SDS011;60605;53.716;19.940;2023-07-29T08:05:15;2.80;;;2.60;;
57899;SDS011;60605;53.716;19.940;2023-07-29T08:10:18;3.00;;;2.50;;
57899;SDS011;60605;53.716;19.940;2023-07-29T08:15:22;5.50;;;2.60;;
57899;SDS011;60605;53.716;19.940;2023-07-29T08:20:25;5.30;;;2.30;;
57899;SDS011;60605;53.716;19.940;2023-07-29T08:25:29;2.50;;;2.40;;
57899;SDS011;60605;53.716;19.940;2023-07-29T08:30:32;2.80;;;2.50;;
57899;SDS011;60605;53.716;19.940;2023-07-29T08:35:35;2.60;;;2.40;;
57899;SDS011;60605;53.716;19.940;2023-07-29T08:40:42;2.70;;;2.20;;
57899;SDS011;60605;53.716;19.940;2023-07-29T08:45:48;2.80;;;2.20;;
57899;SDS011;60605;53.716;19.940;2023-07-29T08:50:52;2.60;;;2.30;;
57899;SDS011;60605;53.716;19.940;2023-07-29T08:55:56;2.90;;;2.10;;
57899;SDS011;60605;53.716;19.940;2023-07-29T09:01:01;3.00;;;2.20;;
57899;SDS011;60605;53.716;19.940;2023-07-29T09:06:05;3.00;;;2.20;;
57899;SDS011;60605;53.716;19.940;2023-07-29T09:11:09;2.50;;;2.30;;
57899;SDS011;60605;53.716;19.940;2023-07-29T09:16:13;2.20;;;2.10;;
57899;SDS011;60605;53.716;19.940;2023-07-29T09:21:17;2.30;;;2.20;;
57899;SDS011;60605;53.716;19.940;2023-07-29T09:26:26;3.20;;;2.30;;
57899;SDS011;60605;53.716;19.940;2023-07-29T09:31:30;2.40;;;2.20;;
57899;SDS011;60605;53.716;19.940;2023-07-29T09:36:34;2.70;;;2.20;;
57899;SDS011;60605;53.716;19.940;2023-07-29T09:41:39;3.80;;;2.00;;
57899;SDS011;60605;53.716;19.940;2023-07-29T09:46:45;3.90;;;2.20;;
57899;SDS011;60605;53.716;19.940;2023-07-29T09:51:49;2.30;;;2.00;;
57899;SDS011;60605;53.716;19.940;2023-07-29T09:56:52;3.10;;;2.10;;
57899;SDS011;60605;53.716;19.940;2023-07-29T10:01:56;2.20;;;2.10;;
57899;SDS011;60605;53.716;19.940;2023-07-29T10:07:00;2.30;;;2.20;;
57899;SDS011;60605;53.716;19.940;2023-07-29T10:12:08;2.50;;;2.00;;
57899;SDS011;60605;53.716;19.940;2023-07-29T10:17:14;3.10;;;2.80;;
57899;SDS011;60605;53.716;19.940;2023-07-29T10:22:20;2.20;;;2.10;;
57899;SDS011;60605;53.716;19.940;2023-07-29T10:27:24;3.10;;;2.20;;
57899;SDS011;60605;53.716;19.940;2023-07-29T10:32:29;3.30;;;2.10;;
57899;SDS011;60605;53.716;19.940;2023-07-29T10:37:34;2.50;;;2.30;;
57899;SDS011;60605;53.716;19.940;2023-07-29T10:42:38;3.30;;;2.30;;
57899;SDS011;60605;53.716;19.940;2023-07-29T10:48:13;3.10;;;2.10;;
57899;SDS011;60605;53.716;19.940;2023-07-29T10:53:37;2.10;;;2.00;;
57899;SDS011;60605;53.716;19.940;2023-07-29T10:58:41;2.40;;;2.20;;
57899;SDS011;60605;53.716;19.940;2023-07-29T11:04:00;2.30;;;2.10;;
57899;SDS011;60605;53.716;19.940;2023-07-29T11:14:59;3.60;;;2.00;;
57899;SDS011;60605;53.716;19.940;2023-07-29T11:20:07;2.10;;;2.00;;
57899;SDS011;60605;53.716;19.940;2023-07-29T11:25:12;2.10;;;2.00;;
57899;SDS011;60605;53.716;19.940;2023-07-29T11:30:17;2.30;;;2.10;;
57899;SDS011;60605;53.716;19.940;2023-07-29T11:35:20;1.90;;;1.80;;
57899;SDS011;60605;53.716;19.940;2023-07-29T11:40:24;2.30;;;2.10;;
57899;SDS011;60605;53.716;19.940;2023-07-29T11:45:27;2.30;;;2.10;;
57899;SDS011;60605;53.716;19.940;2023-07-29T11:50:52;2.20;;;2.00;;
57899;SDS011;60605;53.716;19.940;2023-07-29T11:55:57;2.80;;;2.30;;
57899;SDS011;60605;53.716;19.940;2023-07-29T12:01:01;2.20;;;2.10;;
57899;SDS011;60605;53.716;19.940;2023-07-29T12:06:06;2.50;;;2.10;;
57899;SDS011;60605;53.716;19.940;2023-07-29T12:11:13;2.90;;;2.20;;
57899;SDS011;60605;53.716;19.940;2023-07-29T12:16:17;1.90;;;1.80;;
57899;SDS011;60605;53.716;19.940;2023-07-29T12:21:21;2.30;;;2.10;;
57899;SDS011;60605;53.716;19.940;2023-07-29T12:26:28;2.40;;;2.20;;
57899;SDS011;60605;53.716;19.940;2023-07-29T12:31:33;3.60;;;1.90;;
57899;SDS011;60605;53.716;19.940;2023-07-29T12:36:43;2.20;;;2.00;;
57899;SDS011;60605;53.716;19.940;2023-07-29T12:41:52;2.30;;;2.10;;
57899;SDS011;60605;53.716;19.940;2023-07-29T12:46:57;2.30;;;2.10;;
57899;SDS011;60605;53.716;19.940;2023-07-29T12:52:01;2.40;;;2.30;;
57899;SDS011;60605;53.716;19.940;2023-07-29T12:57:04;2.30;;;2.10;;
57899;SDS011;60605;53.716;19.940;2023-07-29T13:02:08;2.00;;;1.90;;
57899;SDS011;60605;53.716;19.940;2023-07-29T13:07:11;2.50;;;2.30;;
57899;SDS011;60605;53.716;19.940;2023-07-29T13:12:15;2.30;;;2.10;;
57899;SDS011;60605;53.716;19.940;2023-07-29T13:17:18;3.40;;;2.00;;
57899;SDS011;60605;53.716;19.940;2023-07-29T13:22:21;2.20;;;2.00;;
57899;SDS011;60605;53.716;19.940;2023-07-29T13:27:25;2.70;;;1.80;;
57899;SDS011;60605;53.716;19.940;2023-07-29T13:32:29;2.10;;;2.00;;
57899;SDS011;60605;53.716;19.940;2023-07-29T13:37:33;2.20;;;2.10;;
57899;SDS011;60605;53.716;19.940;2023-07-29T13:42:36;2.60;;;2.00;;
57899;SDS011;60605;53.716;19.940;2023-07-29T13:47:39;2.00;;;1.90;;
57899;SDS011;60605;53.716;19.940;2023-07-29T13:52:43;2.90;;;1.80;;
57899;SDS011;60605;53.716;19.940;2023-07-29T13:57:46;1.90;;;1.80;;
57899;SDS011;60605;53.716;19.940;2023-07-29T14:02:50;2.80;;;1.80;;
57899;SDS011;60605;53.716;19.940;2023-07-29T14:07:54;2.20;;;1.90;;
57899;SDS011;60605;53.716;19.940;2023-07-29T14:12:57;2.00;;;1.90;;
57899;SDS011;60605;53.716;19.940;2023-07-29T14:18:00;1.80;;;1.70;;
57899;SDS011;60605;53.716;19.940;2023-07-29T14:23:05;2.10;;;2.00;;
57899;SDS011;60605;53.716;19.940;2023-07-29T14:28:09;2.10;;;1.90;;
57899;SDS011;60605;53.716;19.940;2023-07-29T14:33:12;4.00;;;2.00;;
57899;SDS011;60605;53.716;19.940;2023-07-29T14:38:17;2.40;;;1.80;;
57899;SDS011;60605;53.716;19.940;2023-07-29T14:43:21;2.10;;;1.80;;
57899;SDS011;60605;53.716;19.940;2023-07-29T14:48:24;2.10;;;2.00;;
57899;SDS011;60605;53.716;19.940;2023-07-29T14:53:27;3.40;;;2.00;;
57899;SDS011;60605;53.716;19.940;2023-07-29T14:58:31;3.00;;;2.10;;
57899;SDS011;60605;53.716;19.940;2023-07-29T15:03:34;2.10;;;2.00;;
57899;SDS011;60605;53.716;19.940;2023-07-29T15:08:37;2.10;;;2.00;;
57899;SDS011;60605;53.716;19.940;2023-07-29T15:13:41;2.00;;;1.90;;
57899;SDS011;60605;53.716;19.940;2023-07-29T15:18:44;2.30;;;2.10;;
57899;SDS011;60605;53.716;19.940;2023-07-29T15:23:49;4.10;;;2.30;;
57899;SDS011;60605;53.716;19.940;2023-07-29T15:28:52;2.30;;;2.10;;
57899;SDS011;60605;53.716;19.940;2023-07-29T15:33:55;2.10;;;1.90;;
57899;SDS011;60605;53.716;19.940;2023-07-29T15:38:59;2.10;;;1.90;;
57899;SDS011;60605;53.716;19.940;2023-07-29T15:44:02;2.10;;;2.00;;
57899;SDS011;60605;53.716;19.940;2023-07-29T15:49:06;2.80;;;2.10;;
57899;SDS011;60605;53.716;19.940;2023-07-29T15:54:09;2.10;;;2.00;;
57899;SDS011;60605;53.716;19.940;2023-07-29T15:59:13;2.10;;;1.90;;
57899;SDS011;60605;53.716;19.940;2023-07-29T16:04:16;3.00;;;2.20;;
57899;SDS011;60605;53.716;19.940;2023-07-29T16:09:20;3.00;;;2.00;;
57899;SDS011;60605;53.716;19.940;2023-07-29T16:14:24;2.20;;;2.00;;
57899;SDS011;60605;53.716;19.940;2023-07-29T16:19:27;1.80;;;1.70;;
57899;SDS011;60605;53.716;19.940;2023-07-29T16:24:31;2.70;;;1.80;;
57899;SDS011;60605;53.716;19.940;2023-07-29T16:29:35;2.00;;;1.90;;
57899;SDS011;60605;53.716;19.940;2023-07-29T16:34:38;2.20;;;2.00;;
57899;SDS011;60605;53.716;19.940;2023-07-29T16:39:42;2.10;;;1.90;;
57899;SDS011;60605;53.716;19.940;2023-07-29T16:44:45;2.80;;;2.60;;
57899;SDS011;60605;53.716;19.940;2023-07-29T16:49:49;2.70;;;2.50;;
57899;SDS011;60605;53.716;19.940;2023-07-29T16:54:52;2.60;;;2.40;;
57899;SDS011;60605;53.716;19.940;2023-07-29T16:59:57;2.90;;;2.60;;
57899;SDS011;60605;53.716;19.940;2023-07-29T17:05:01;3.40;;;2.50;;
57899;SDS011;60605;53.716;19.940;2023-07-29T17:10:07;2.40;;;2.30;;
57899;SDS011;60605;53.716;19.940;2023-07-29T17:15:11;2.90;;;2.60;;
57899;SDS011;60605;53.716;19.940;2023-07-29T17:20:14;4.30;;;2.10;;
57899;SDS011;60605;53.716;19.940;2023-07-29T17:25:18;2.60;;;2.10;;
57899;SDS011;60605;53.716;19.940;2023-07-29T17:30:23;2.10;;;2.00;;
57899;SDS011;60605;53.716;19.940;2023-07-29T17:35:34;3.30;;;2.30;;
57899;SDS011;60605;53.716;19.940;2023-07-29T17:40:39;3.20;;;2.40;;
57899;SDS011;60605;53.716;19.940;2023-07-29T17:45:43;2.90;;;2.70;;
57899;SDS011;60605;53.716;19.940;2023-07-29T17:50:47;3.00;;;2.70;;
57899;SDS011;60605;53.716;19.940;2023-07-29T17:55:50;5.60;;;3.40;;
57899;SDS011;60605;53.716;19.940;2023-07-29T18:00:54;4.10;;;2.80;;
57899;SDS011;60605;53.716;19.940;2023-07-29T18:06:01;7.50;;;2.50;;
57899;SDS011;60605;53.716;19.940;2023-07-29T18:11:04;4.30;;;2.40;;
57899;SDS011;60605;53.716;19.940;2023-07-29T18:16:08;3.50;;;2.50;;
57899;SDS011;60605;53.716;19.940;2023-07-29T18:21:11;3.60;;;2.60;;
57899;SDS011;60605;53.716;19.940;2023-07-29T18:26:14;2.60;;;2.40;;
57899;SDS011;60605;53.716;19.940;2023-07-29T18:31:18;2.70;;;2.40;;
57899;SDS011;60605;53.716;19.940;2023-07-29T18:36:21;3.50;;;1.80;;
57899;SDS011;60605;53.716;19.940;2023-07-29T18:41:26;2.50;;;1.60;;
57899;SDS011;60605;53.716;19.940;2023-07-29T18:46:31;4.10;;;1.80;;
57899;SDS011;60605;53.716;19.940;2023-07-29T18:51:35;3.20;;;1.30;;
57899;SDS011;60605;53.716;19.940;2023-07-29T18:56:43;3.80;;;1.60;;
57899;SDS011;60605;53.716;19.940;2023-07-29T19:01:46;1.80;;;1.50;;
57899;SDS011;60605;53.716;19.940;2023-07-29T19:06:49;1.70;;;1.40;;
57899;SDS011;60605;53.716;19.940;2023-07-29T19:11:58;4.00;;;2.10;;
57899;SDS011;60605;53.716;19.940;2023-07-29T19:17:03;15.00;;;6.70;;
57899;SDS011;60605;53.716;19.940;2023-07-29T19:22:07;16.40;;;11.10;;
57899;SDS011;60605;53.716;19.940;2023-07-29T19:27:10;5.90;;;4.40;;
57899;SDS011;60605;53.716;19.940;2023-07-29T19:32:15;4.00;;;3.30;;
57899;SDS011;60605;53.716;19.940;2023-07-29T19:37:19;2.40;;;2.00;;
57899;SDS011;60605;53.716;19.940;2023-07-29T19:42:23;2.80;;;2.20;;
57899;SDS011;60605;53.716;19.940;2023-07-29T19:47:27;3.60;;;2.30;;
57899;SDS011;60605;53.716;19.940;2023-07-29T19:52:30;3.10;;;2.60;;
57899;SDS011;60605;53.716;19.940;2023-07-29T19:57:33;4.10;;;2.40;;
57899;SDS011;60605;53.716;19.940;2023-07-29T20:02:37;3.00;;;2.30;;
57899;SDS011;60605;53.716;19.940;2023-07-29T20:07:42;3.80;;;2.60;;
57899;SDS011;60605;53.716;19.940;2023-07-29T20:12:46;5.10;;;2.70;;
57899;SDS011;60605;53.716;19.940;2023-07-29T20:17:50;3.80;;;3.00;;
57899;SDS011;60605;53.716;19.940;2023-07-29T20:22:53;3.10;;;2.70;;
57899;SDS011;60605;53.716;19.940;2023-07-29T20:27:57;5.20;;;3.40;;
57899;SDS011;60605;53.716;19.940;2023-07-29T20:33:02;4.80;;;3.30;;
57899;SDS011;60605;53.716;19.940;2023-07-29T20:38:05;5.10;;;3.30;;
57899;SDS011;60605;53.716;19.940;2023-07-29T20:43:09;9.80;;;3.60;;
57899;SDS011;60605;53.716;19.940;2023-07-29T20:48:13;5.50;;;2.90;;
57899;SDS011;60605;53.716;19.940;2023-07-29T20:53:17;5.40;;;3.00;;
57899;SDS011;60605;53.716;19.940;2023-07-29T20:58:21;5.20;;;3.30;;
57899;SDS011;60605;53.716;19.940;2023-07-29T21:03:24;4.90;;;3.40;;
57899;SDS011;60605;53.716;19.940;2023-07-29T21:08:28;6.20;;;3.70;;
57899;SDS011;60605;53.716;19.940;2023-07-29T21:13:31;4.80;;;3.80;;
57899;SDS011;60605;53.716;19.940;2023-07-29T21:18:34;4.20;;;3.70;;
57899;SDS011;60605;53.716;19.940;2023-07-29T21:23:38;5.30;;;3.50;;
57899;SDS011;60605;53.716;19.940;2023-07-29T21:28:42;5.50;;;4.20;;
57899;SDS011;60605;53.716;19.940;2023-07-29T21:33:45;4.90;;;3.60;;
57899;SDS011;60605;53.716;19.940;2023-07-29T21:38:48;6.60;;;4.10;;
57899;SDS011;60605;53.716;19.940;2023-07-29T21:43:52;6.20;;;4.00;;
57899;SDS011;60605;53.716;19.940;2023-07-29T21:48:57;5.20;;;3.70;;
57899;SDS011;60605;53.716;19.940;2023-07-29T21:54:01;4.50;;;3.80;;
57899;SDS011;60605;53.716;19.940;2023-07-29T21:59:04;4.70;;;4.30;;
57899;SDS011;60605;53.716;19.940;2023-07-29T22:04:08;5.40;;;4.20;;
57899;SDS011;60605;53.716;19.940;2023-07-29T22:09:11;5.10;;;4.10;;
57899;SDS011;60605;53.716;19.940;2023-07-29T22:14:14;7.00;;;4.20;;
57899;SDS011;60605;53.716;19.940;2023-07-29T22:19:18;4.20;;;3.60;;
57899;SDS011;60605;53.716;19.940;2023-07-29T22:24:23;6.60;;;4.30;;
57899;SDS011;60605;53.716;19.940;2023-07-29T22:29:26;4.60;;;4.10;;
57899;SDS011;60605;53.716;19.940;2023-07-29T22:34:29;5.30;;;4.20;;
57899;SDS011;60605;53.716;19.940;2023-07-29T22:39:33;6.60;;;4.80;;
57899;SDS011;60605;53.716;19.940;2023-07-29T22:44:36;6.20;;;4.30;;
57899;SDS011;60605;53.716;19.940;2023-07-29T22:49:41;6.00;;;3.50;;
57899;SDS011;60605;53.716;19.940;2023-07-29T22:54:45;4.80;;;4.20;;
57899;SDS011;60605;53.716;19.940;2023-07-29T22:59:49;4.90;;;3.80;;
57899;SDS011;60605;53.716;19.940;2023-07-29T23:04:52;5.50;;;3.90;;
57899;SDS011;60605;53.716;19.940;2023-07-29T23:09:55;6.30;;;4.10;;
57899;SDS011;60605;53.716;19.940;2023-07-29T23:14:58;7.10;;;4.10;;
57899;SDS011;60605;53.716;19.940;2023-07-29T23:20:02;4.40;;;4.00;;
57899;SDS011;60605;53.716;19.940;2023-07-29T23:25:06;5.40;;;4.20;;
57899;SDS011;60605;53.716;19.940;2023-07-29T23:30:10;4.20;;;3.80;;
57899;SDS011;60605;53.716;19.940;2023-07-29T23:35:14;4.10;;;3.70;;
57899;SDS011;60605;53.716;19.940;2023-07-29T23:40:17;4.30;;;3.90;;
57899;SDS011;60605;53.716;19.940;2023-07-29T23:45:20;5.20;;;4.10;;
57899;SDS011;60605;53.716;19.940;2023-07-29T23:50:24;4.60;;;4.10;;
57899;SDS011;60605;53.716;19.940;2023-07-29T23:55:27;4.20;;;3.80;;
